Aérodrome :
LOGIN :

S'inscrire | Disclaimer

   EN    FR    IT 

 










Légende :    VFR   VFR Marginal   IFR   IFR Intensif   IFR Très Intensif
Visi : 
Plafond : 
>= 8 km
>= 3000ft
5 à 8 km
1000 à 3000 ft
1500m à 5 km
500 à 1000 ft
800 à 1500m
200 à 500 ft
< 800m
< 200 ft
Symboles :   Orages  Brouillard  Fortes neiges  Fortes précipitations  Vent > 20 kt
SIGMETs :   Divers  Orages  Givrage  Turbulence  Onde Orograph.  Cendres Volcan.







- Altitude de l'aérodrome : 580 ft
- Voir les cartes d'approche


LFOA - Avord

DERNIER METAR :
  • 162300Z AUTO 17003KT CAVOK 16/13 Q1020

METARs EXPIRÉS :
  • 162230Z AUTO 20003KT CAVOK 17/13 Q1020
  • 162200Z AUTO 22003KT CAVOK 18/13 Q1020
  • 162130Z AUTO 23002KT CAVOK 19/13 Q1021
  • 162100Z AUTO 00000KT CAVOK 19/12 Q1021
  • 162030Z AUTO 30002KT CAVOK 20/12 Q1021

TAF TAF LFOA
Valide du 16 à 21h jusqu'au 17 à 21h UTC


162000Z 1621/1721 32005KT CAVOK
BECMG 1705/1707 26010KT
PROB30
TEMPO 1715/1718 28015G25KT 4000 -SHRA BKN040TCU
Pas de NOTAMs connus pour ce terrain.



MET'MAP, la Météo Aéronautique d'un coup d'oeil ! - Copyright ORBIFLY Décembre 2007 - Disclaimer

ORBIFLY MET'MAP TEAM :

Programmation & Développement : Alexandra Zaïnal
Conception & Développement : Baudouin d'Aumeries
Co-Programmation & Développement : Marc-Olivier Méhu
Soutien technique & logistique : Manuel Goepfert

Contact : metmap@orbifly.com




SOURCES & CREDITS :

   NOAA